XS81 weather

Santa Rosa Helistop
San Antonio, Texas, United States

Public forecast

Using degrees Fahrenheit for public forecast. Weather courtesy of forecast.io.

METAR (pilot weather report)

Closest report is Lackland Air Force Base, 5.0 nm (9.2 km) WSW. Retrieved 2019/09/19 02:56 UTC (41 minutes ago):

KSKF 190256Z AUTO 10007KT 10SM FEW090 33/21 A2984 RMK AO2 SLPNO T03270212 52017 $

TAF (pilot weather forecast)

Closest forecast is Lackland Air Force Base, 5.0 nm (9.2 km) WSW. Retrieved 2019/09/19 02:29 UTC (1 hour ago):

TAF KSKF 190200Z 1902/2008 07006KT 9999 FEW050 SCT110 QNH2981INS BECMG 1920/1921 14012KT 9999 VCTS SCT065CB BKN250 QNH2979INS BECMG 2002/2003 15012KT 9999 NSW FEW060 QNH2986INS TX36/1921Z TN24/1911Z